Rye, Arkansas
Current Conditions -  °F | °C
As of 5:53 AM on Monday 24 Nov 2014 (Local Time) from KPBF Reporting Station
Few Clouds Few Clouds  
Wind Chill: 43°   Ceiling: Unl
Heat Index: 48°   Visibility: 10mi
Dew Point: 39°   Wind: 10mph
Humidity: 71%   Direction: 280°W
Pressure: 29.8"   Gusts: NA
Location:  33.947°N, 92.1633°W
Report Text: KPBF 241153Z AUTO 28009KT 10SM FEW036 09/04 A2980 RMK AO2 SLP089 60000 70056 T00890039 10156 20089 51052
Loading
Personal Weather Stations






























Interactive Weather Map New forecast layout! Learn more

10-Day Weather Forecast

Advertisements
Track Severe Weather on mobile